sensor_id;sensor_type;location;lat;lon;timestamp;P1;durP1;ratioP1;P2;durP2;ratioP2
65567;SDS011;52211;50.154;8.682;2024-01-30T00:00:39;16.63;;;13.00;;
65567;SDS011;52211;50.154;8.682;2024-01-30T00:03:08;15.93;;;12.80;;
65567;SDS011;52211;50.154;8.682;2024-01-30T00:05:35;17.20;;;13.87;;
65567;SDS011;52211;50.154;8.682;2024-01-30T00:08:04;16.60;;;13.63;;
65567;SDS011;52211;50.154;8.682;2024-01-30T00:10:36;20.80;;;15.77;;
65567;SDS011;52211;50.154;8.682;2024-01-30T00:13:06;20.57;;;15.03;;
65567;SDS011;52211;50.154;8.682;2024-01-30T00:15:34;19.43;;;14.83;;
65567;SDS011;52211;50.154;8.682;2024-01-30T00:18:01;18.83;;;14.23;;
65567;SDS011;52211;50.154;8.682;2024-01-30T00:20:32;17.00;;;13.97;;
65567;SDS011;52211;50.154;8.682;2024-01-30T00:23:04;21.30;;;14.67;;
65567;SDS011;52211;50.154;8.682;2024-01-30T00:25:33;20.00;;;14.87;;
65567;SDS011;52211;50.154;8.682;2024-01-30T00:28:02;18.20;;;15.17;;
65567;SDS011;52211;50.154;8.682;2024-01-30T00:30:34;21.57;;;15.77;;
65567;SDS011;52211;50.154;8.682;2024-01-30T00:33:04;20.50;;;15.33;;
65567;SDS011;52211;50.154;8.682;2024-01-30T00:35:33;18.63;;;14.80;;
65567;SDS011;52211;50.154;8.682;2024-01-30T00:38:02;22.23;;;14.57;;
65567;SDS011;52211;50.154;8.682;2024-01-30T00:40:34;19.50;;;14.83;;
65567;SDS011;52211;50.154;8.682;2024-01-30T00:43:01;16.57;;;13.83;;
65567;SDS011;52211;50.154;8.682;2024-01-30T00:45:30;16.93;;;14.23;;
65567;SDS011;52211;50.154;8.682;2024-01-30T00:48:02;20.63;;;14.30;;
65567;SDS011;52211;50.154;8.682;2024-01-30T00:50:29;17.10;;;13.60;;
65567;SDS011;52211;50.154;8.682;2024-01-30T00:52:56;18.27;;;14.63;;
65567;SDS011;52211;50.154;8.682;2024-01-30T00:55:25;17.77;;;13.87;;
65567;SDS011;52211;50.154;8.682;2024-01-30T00:57:52;21.03;;;15.43;;
65567;SDS011;52211;50.154;8.682;2024-01-30T01:00:19;19.03;;;15.60;;
65567;SDS011;52211;50.154;8.682;2024-01-30T01:02:47;18.00;;;15.03;;
65567;SDS011;52211;50.154;8.682;2024-01-30T01:05:16;19.53;;;14.70;;
65567;SDS011;52211;50.154;8.682;2024-01-30T01:07:43;15.60;;;13.07;;
65567;SDS011;52211;50.154;8.682;2024-01-30T01:10:11;16.80;;;13.30;;
65567;SDS011;52211;50.154;8.682;2024-01-30T01:12:40;23.20;;;13.73;;
65567;SDS011;52211;50.154;8.682;2024-01-30T01:15:07;17.63;;;12.97;;
65567;SDS011;52211;50.154;8.682;2024-01-30T01:17:38;17.80;;;13.80;;
65567;SDS011;52211;50.154;8.682;2024-01-30T01:20:05;17.03;;;13.53;;
65567;SDS011;52211;50.154;8.682;2024-01-30T01:22:37;14.93;;;12.97;;
65567;SDS011;52211;50.154;8.682;2024-01-30T01:25:08;15.80;;;13.67;;
65567;SDS011;52211;50.154;8.682;2024-01-30T01:27:39;17.67;;;13.07;;
65567;SDS011;52211;50.154;8.682;2024-01-30T01:30:08;16.90;;;13.10;;
65567;SDS011;52211;50.154;8.682;2024-01-30T01:32:44;17.67;;;14.40;;
65567;SDS011;52211;50.154;8.682;2024-01-30T01:35:19;15.93;;;12.90;;
65567;SDS011;52211;50.154;8.682;2024-01-30T01:37:46;17.50;;;14.07;;
65567;SDS011;52211;50.154;8.682;2024-01-30T01:40:24;16.60;;;13.37;;
65567;SDS011;52211;50.154;8.682;2024-01-30T01:42:53;13.40;;;11.73;;
65567;SDS011;52211;50.154;8.682;2024-01-30T01:45:23;14.57;;;12.27;;
65567;SDS011;52211;50.154;8.682;2024-01-30T01:47:51;14.87;;;11.47;;
65567;SDS011;52211;50.154;8.682;2024-01-30T01:50:21;14.63;;;11.23;;
65567;SDS011;52211;50.154;8.682;2024-01-30T01:52:52;14.13;;;11.33;;
65567;SDS011;52211;50.154;8.682;2024-01-30T01:55:24;12.67;;;10.40;;
65567;SDS011;52211;50.154;8.682;2024-01-30T01:57:54;11.20;;;9.43;;
65567;SDS011;52211;50.154;8.682;2024-01-30T02:00:24;12.07;;;9.37;;
65567;SDS011;52211;50.154;8.682;2024-01-30T02:02:51;10.80;;;9.03;;
65567;SDS011;52211;50.154;8.682;2024-01-30T02:05:24;13.87;;;11.60;;
65567;SDS011;52211;50.154;8.682;2024-01-30T02:07:52;16.70;;;12.77;;
65567;SDS011;52211;50.154;8.682;2024-01-30T02:10:20;15.23;;;13.03;;
65567;SDS011;52211;50.154;8.682;2024-01-30T02:12:50;16.87;;;12.80;;
65567;SDS011;52211;50.154;8.682;2024-01-30T02:15:20;14.33;;;12.53;;
65567;SDS011;52211;50.154;8.682;2024-01-30T02:17:49;15.03;;;12.40;;
65567;SDS011;52211;50.154;8.682;2024-01-30T02:20:15;13.50;;;11.83;;
65567;SDS011;52211;50.154;8.682;2024-01-30T02:22:45;16.80;;;12.47;;
65567;SDS011;52211;50.154;8.682;2024-01-30T02:25:16;16.30;;;12.90;;
65567;SDS011;52211;50.154;8.682;2024-01-30T02:27:46;17.13;;;13.07;;
65567;SDS011;52211;50.154;8.682;2024-01-30T02:30:15;13.73;;;11.77;;
65567;SDS011;52211;50.154;8.682;2024-01-30T02:32:44;18.30;;;11.93;;
65567;SDS011;52211;50.154;8.682;2024-01-30T02:35:12;15.57;;;11.20;;
65567;SDS011;52211;50.154;8.682;2024-01-30T02:37:41;14.60;;;11.93;;
65567;SDS011;52211;50.154;8.682;2024-01-30T02:40:11;16.37;;;11.60;;
65567;SDS011;52211;50.154;8.682;2024-01-30T02:42:38;13.77;;;11.57;;
65567;SDS011;52211;50.154;8.682;2024-01-30T02:45:10;14.63;;;11.43;;
65567;SDS011;52211;50.154;8.682;2024-01-30T02:47:38;15.93;;;12.07;;
65567;SDS011;52211;50.154;8.682;2024-01-30T02:50:11;14.00;;;11.27;;
65567;SDS011;52211;50.154;8.682;2024-01-30T02:52:43;18.17;;;11.53;;
65567;SDS011;52211;50.154;8.682;2024-01-30T02:55:15;15.13;;;10.53;;
65567;SDS011;52211;50.154;8.682;2024-01-30T02:57:45;15.33;;;11.93;;
65567;SDS011;52211;50.154;8.682;2024-01-30T03:00:14;14.13;;;12.17;;
65567;SDS011;52211;50.154;8.682;2024-01-30T03:02:46;14.10;;;11.93;;
65567;SDS011;52211;50.154;8.682;2024-01-30T03:05:13;12.47;;;10.40;;
65567;SDS011;52211;50.154;8.682;2024-01-30T03:07:40;11.50;;;9.97;;
65567;SDS011;52211;50.154;8.682;2024-01-30T03:10:10;12.77;;;9.57;;
65567;SDS011;52211;50.154;8.682;2024-01-30T03:12:37;14.30;;;10.93;;
65567;SDS011;52211;50.154;8.682;2024-01-30T03:15:08;15.70;;;10.60;;
65567;SDS011;52211;50.154;8.682;2024-01-30T03:17:41;11.30;;;10.03;;
65567;SDS011;52211;50.154;8.682;2024-01-30T03:20:10;13.23;;;10.93;;
65567;SDS011;52211;50.154;8.682;2024-01-30T03:22:37;10.83;;;9.67;;
65567;SDS011;52211;50.154;8.682;2024-01-30T03:25:09;13.27;;;9.83;;
65567;SDS011;52211;50.154;8.682;2024-01-30T03:27:38;11.13;;;9.93;;
65567;SDS011;52211;50.154;8.682;2024-01-30T03:30:10;12.87;;;10.10;;
65567;SDS011;52211;50.154;8.682;2024-01-30T03:32:37;11.97;;;9.73;;
65567;SDS011;52211;50.154;8.682;2024-01-30T03:35:04;10.67;;;9.40;;
65567;SDS011;52211;50.154;8.682;2024-01-30T03:37:31;15.83;;;9.10;;
65567;SDS011;52211;50.154;8.682;2024-01-30T03:39:58;12.87;;;9.23;;
65567;SDS011;52211;50.154;8.682;2024-01-30T03:42:25;12.40;;;10.10;;
65567;SDS011;52211;50.154;8.682;2024-01-30T03:44:52;13.33;;;10.70;;
65567;SDS011;52211;50.154;8.682;2024-01-30T03:47:21;13.83;;;10.13;;
65567;SDS011;52211;50.154;8.682;2024-01-30T03:49:48;11.47;;;9.60;;
65567;SDS011;52211;50.154;8.682;2024-01-30T03:52:19;14.53;;;9.70;;
65567;SDS011;52211;50.154;8.682;2024-01-30T03:54:48;12.20;;;9.60;;
65567;SDS011;52211;50.154;8.682;2024-01-30T03:57:16;13.77;;;10.10;;
65567;SDS011;52211;50.154;8.682;2024-01-30T03:59:45;13.57;;;10.20;;
65567;SDS011;52211;50.154;8.682;2024-01-30T04:02:12;13.57;;;10.37;;
65567;SDS011;52211;50.154;8.682;2024-01-30T04:04:41;12.27;;;8.80;;
65567;SDS011;52211;50.154;8.682;2024-01-30T04:07:13;11.60;;;8.83;;
65567;SDS011;52211;50.154;8.682;2024-01-30T04:09:44;10.83;;;9.13;;
65567;SDS011;52211;50.154;8.682;2024-01-30T04:12:11;9.93;;;8.83;;
65567;SDS011;52211;50.154;8.682;2024-01-30T04:14:40;12.43;;;9.30;;
65567;SDS011;52211;50.154;8.682;2024-01-30T04:17:12;11.43;;;8.77;;
65567;SDS011;52211;50.154;8.682;2024-01-30T04:19:43;11.20;;;8.47;;
65567;SDS011;52211;50.154;8.682;2024-01-30T04:22:15;10.17;;;9.03;;
65567;SDS011;52211;50.154;8.682;2024-01-30T04:24:47;15.17;;;8.97;;
65567;SDS011;52211;50.154;8.682;2024-01-30T04:27:16;12.23;;;9.17;;
65567;SDS011;52211;50.154;8.682;2024-01-30T04:29:45;13.60;;;9.23;;
65567;SDS011;52211;50.154;8.682;2024-01-30T04:32:14;10.80;;;8.60;;
65567;SDS011;52211;50.154;8.682;2024-01-30T04:34:48;10.33;;;9.33;;
65567;SDS011;52211;50.154;8.682;2024-01-30T04:37:18;12.43;;;9.37;;
65567;SDS011;52211;50.154;8.682;2024-01-30T04:39:45;13.17;;;10.23;;
65567;SDS011;52211;50.154;8.682;2024-01-30T04:42:13;12.03;;;10.07;;
65567;SDS011;52211;50.154;8.682;2024-01-30T04:44:42;10.27;;;9.17;;
65567;SDS011;52211;50.154;8.682;2024-01-30T04:47:09;12.10;;;10.00;;
65567;SDS011;52211;50.154;8.682;2024-01-30T04:49:42;11.73;;;9.60;;
65567;SDS011;52211;50.154;8.682;2024-01-30T04:52:09;13.73;;;9.80;;
65567;SDS011;52211;50.154;8.682;2024-01-30T04:54:38;12.23;;;9.90;;
65567;SDS011;52211;50.154;8.682;2024-01-30T04:57:18;11.27;;;9.23;;
65567;SDS011;52211;50.154;8.682;2024-01-30T04:59:45;13.57;;;10.57;;
65567;SDS011;52211;50.154;8.682;2024-01-30T05:02:14;9.83;;;8.93;;
65567;SDS011;52211;50.154;8.682;2024-01-30T05:04:44;11.23;;;9.03;;
65567;SDS011;52211;50.154;8.682;2024-01-30T05:07:13;14.17;;;10.40;;
65567;SDS011;52211;50.154;8.682;2024-01-30T05:09:40;10.50;;;9.27;;
65567;SDS011;52211;50.154;8.682;2024-01-30T05:12:09;10.60;;;9.17;;
65567;SDS011;52211;50.154;8.682;2024-01-30T05:14:36;10.40;;;9.30;;
65567;SDS011;52211;50.154;8.682;2024-01-30T05:17:08;12.67;;;10.43;;
65567;SDS011;52211;50.154;8.682;2024-01-30T05:19:39;9.27;;;8.17;;
65567;SDS011;52211;50.154;8.682;2024-01-30T05:22:11;9.93;;;8.90;;
65567;SDS011;52211;50.154;8.682;2024-01-30T05:24:44;12.30;;;9.40;;
65567;SDS011;52211;50.154;8.682;2024-01-30T05:27:11;11.50;;;9.17;;
65567;SDS011;52211;50.154;8.682;2024-01-30T05:29:43;14.23;;;9.27;;
65567;SDS011;52211;50.154;8.682;2024-01-30T05:32:12;11.00;;;9.27;;
65567;SDS011;52211;50.154;8.682;2024-01-30T05:34:39;10.87;;;8.40;;
65567;SDS011;52211;50.154;8.682;2024-01-30T05:37:12;9.97;;;8.03;;
65567;SDS011;52211;50.154;8.682;2024-01-30T05:39:43;9.50;;;8.50;;
65567;SDS011;52211;50.154;8.682;2024-01-30T05:42:14;9.93;;;8.93;;
65567;SDS011;52211;50.154;8.682;2024-01-30T05:44:43;11.60;;;9.07;;
65567;SDS011;52211;50.154;8.682;2024-01-30T05:47:10;10.07;;;8.17;;
65567;SDS011;52211;50.154;8.682;2024-01-30T05:49:37;12.37;;;9.00;;
65567;SDS011;52211;50.154;8.682;2024-01-30T05:52:06;13.43;;;9.23;;
65567;SDS011;52211;50.154;8.682;2024-01-30T05:54:33;12.10;;;8.27;;
65567;SDS011;52211;50.154;8.682;2024-01-30T05:57:00;12.10;;;10.70;;
65567;SDS011;52211;50.154;8.682;2024-01-30T05:59:32;16.10;;;11.93;;
65567;SDS011;52211;50.154;8.682;2024-01-30T06:01:59;13.20;;;9.77;;
65567;SDS011;52211;50.154;8.682;2024-01-30T06:04:26;11.27;;;9.40;;
65567;SDS011;52211;50.154;8.682;2024-01-30T06:06:55;10.20;;;9.10;;
65567;SDS011;52211;50.154;8.682;2024-01-30T06:09:30;13.60;;;10.80;;
65567;SDS011;52211;50.154;8.682;2024-01-30T06:12:02;12.40;;;10.30;;
65567;SDS011;52211;50.154;8.682;2024-01-30T06:14:31;13.70;;;9.10;;
65567;SDS011;52211;50.154;8.682;2024-01-30T06:17:00;11.50;;;9.80;;
65567;SDS011;52211;50.154;8.682;2024-01-30T06:19:27;12.27;;;8.93;;
65567;SDS011;52211;50.154;8.682;2024-01-30T06:21:54;12.67;;;9.27;;
65567;SDS011;52211;50.154;8.682;2024-01-30T06:24:23;10.73;;;8.77;;
65567;SDS011;52211;50.154;8.682;2024-01-30T06:26:55;10.93;;;9.10;;
65567;SDS011;52211;50.154;8.682;2024-01-30T06:29:26;11.73;;;10.17;;
65567;SDS011;52211;50.154;8.682;2024-01-30T06:31:56;13.10;;;10.00;;
65567;SDS011;52211;50.154;8.682;2024-01-30T06:34:27;12.07;;;10.50;;
65567;SDS011;52211;50.154;8.682;2024-01-30T06:36:57;14.13;;;11.17;;
65567;SDS011;52211;50.154;8.682;2024-01-30T06:39:26;16.10;;;11.03;;
65567;SDS011;52211;50.154;8.682;2024-01-30T06:41:53;13.40;;;9.97;;
65567;SDS011;52211;50.154;8.682;2024-01-30T06:44:23;14.07;;;10.53;;
65567;SDS011;52211;50.154;8.682;2024-01-30T06:46:53;14.07;;;10.33;;
65567;SDS011;52211;50.154;8.682;2024-01-30T06:49:25;11.90;;;9.80;;
65567;SDS011;52211;50.154;8.682;2024-01-30T06:51:52;13.00;;;9.93;;
65567;SDS011;52211;50.154;8.682;2024-01-30T06:54:19;12.57;;;10.20;;
65567;SDS011;52211;50.154;8.682;2024-01-30T06:56:48;13.97;;;10.63;;
65567;SDS011;52211;50.154;8.682;2024-01-30T06:59:22;10.93;;;9.20;;
65567;SDS011;52211;50.154;8.682;2024-01-30T07:01:54;13.77;;;10.23;;
65567;SDS011;52211;50.154;8.682;2024-01-30T07:04:21;11.60;;;10.37;;
65567;SDS011;52211;50.154;8.682;2024-01-30T07:06:50;13.07;;;10.23;;
65567;SDS011;52211;50.154;8.682;2024-01-30T07:09:19;11.50;;;9.23;;
65567;SDS011;52211;50.154;8.682;2024-01-30T07:11:48;12.50;;;9.50;;
65567;SDS011;52211;50.154;8.682;2024-01-30T07:14:17;12.33;;;10.27;;
65567;SDS011;52211;50.154;8.682;2024-01-30T07:16:47;12.83;;;9.93;;
65567;SDS011;52211;50.154;8.682;2024-01-30T07:19:16;11.13;;;9.67;;
65567;SDS011;52211;50.154;8.682;2024-01-30T07:21:45;15.97;;;10.77;;
65567;SDS011;52211;50.154;8.682;2024-01-30T07:24:14;14.83;;;12.17;;
65567;SDS011;52211;50.154;8.682;2024-01-30T07:26:43;13.07;;;10.43;;
65567;SDS011;52211;50.154;8.682;2024-01-30T07:29:10;13.93;;;10.47;;
65567;SDS011;52211;50.154;8.682;2024-01-30T07:31:37;13.03;;;9.57;;
65567;SDS011;52211;50.154;8.682;2024-01-30T07:34:07;13.90;;;9.33;;
65567;SDS011;52211;50.154;8.682;2024-01-30T07:36:39;13.73;;;10.47;;
65567;SDS011;52211;50.154;8.682;2024-01-30T07:39:06;12.20;;;10.13;;
65567;SDS011;52211;50.154;8.682;2024-01-30T07:41:33;12.37;;;9.03;;
65567;SDS011;52211;50.154;8.682;2024-01-30T07:44:00;13.90;;;9.13;;
65567;SDS011;52211;50.154;8.682;2024-01-30T07:46:27;13.27;;;9.33;;
65567;SDS011;52211;50.154;8.682;2024-01-30T07:48:54;11.97;;;10.43;;
65567;SDS011;52211;50.154;8.682;2024-01-30T07:51:22;11.77;;;10.20;;
65567;SDS011;52211;50.154;8.682;2024-01-30T07:53:51;12.10;;;9.10;;
65567;SDS011;52211;50.154;8.682;2024-01-30T07:56:20;14.60;;;10.50;;
65567;SDS011;52211;50.154;8.682;2024-01-30T07:58:47;13.30;;;10.17;;
65567;SDS011;52211;50.154;8.682;2024-01-30T08:01:19;9.93;;;8.80;;
65567;SDS011;52211;50.154;8.682;2024-01-30T08:03:46;11.70;;;10.10;;
65567;SDS011;52211;50.154;8.682;2024-01-30T08:06:18;13.50;;;10.50;;
65567;SDS011;52211;50.154;8.682;2024-01-30T08:08:45;14.07;;;11.37;;
65567;SDS011;52211;50.154;8.682;2024-01-30T08:11:12;14.43;;;11.63;;
65567;SDS011;52211;50.154;8.682;2024-01-30T08:13:39;16.37;;;11.90;;
65567;SDS011;52211;50.154;8.682;2024-01-30T08:16:06;14.33;;;11.53;;
65567;SDS011;52211;50.154;8.682;2024-01-30T08:18:40;13.67;;;10.57;;
65567;SDS011;52211;50.154;8.682;2024-01-30T08:21:12;15.67;;;11.57;;
65567;SDS011;52211;50.154;8.682;2024-01-30T08:23:43;17.93;;;12.50;;
65567;SDS011;52211;50.154;8.682;2024-01-30T08:26:10;12.07;;;10.70;;
65567;SDS011;52211;50.154;8.682;2024-01-30T08:28:39;13.07;;;11.00;;
65567;SDS011;52211;50.154;8.682;2024-01-30T08:31:15;13.70;;;10.83;;
65567;SDS011;52211;50.154;8.682;2024-01-30T08:33:44;15.17;;;11.63;;
65567;SDS011;52211;50.154;8.682;2024-01-30T08:36:13;16.63;;;12.27;;
65567;SDS011;52211;50.154;8.682;2024-01-30T08:38:43;14.53;;;12.00;;
65567;SDS011;52211;50.154;8.682;2024-01-30T08:41:13;13.33;;;11.87;;
65567;SDS011;52211;50.154;8.682;2024-01-30T08:43:42;15.67;;;11.13;;
65567;SDS011;52211;50.154;8.682;2024-01-30T08:46:11;12.77;;;11.27;;
65567;SDS011;52211;50.154;8.682;2024-01-30T08:48:41;16.60;;;12.27;;
65567;SDS011;52211;50.154;8.682;2024-01-30T08:51:08;13.53;;;12.00;;
65567;SDS011;52211;50.154;8.682;2024-01-30T08:53:37;17.10;;;13.00;;
65567;SDS011;52211;50.154;8.682;2024-01-30T08:56:05;14.10;;;12.33;;
65567;SDS011;52211;50.154;8.682;2024-01-30T08:58:37;17.27;;;12.60;;
65567;SDS011;52211;50.154;8.682;2024-01-30T09:01:08;16.43;;;10.80;;
65567;SDS011;52211;50.154;8.682;2024-01-30T09:03:36;15.43;;;12.37;;
65567;SDS011;52211;50.154;8.682;2024-01-30T09:06:09;13.70;;;12.30;;
65567;SDS011;52211;50.154;8.682;2024-01-30T09:08:38;16.83;;;11.47;;
65567;SDS011;52211;50.154;8.682;2024-01-30T09:11:11;14.57;;;11.97;;
65567;SDS011;52211;50.154;8.682;2024-01-30T09:13:44;14.40;;;12.33;;
65567;SDS011;52211;50.154;8.682;2024-01-30T09:16:11;19.77;;;12.40;;
65567;SDS011;52211;50.154;8.682;2024-01-30T09:18:40;20.33;;;12.23;;
65567;SDS011;52211;50.154;8.682;2024-01-30T09:21:07;15.37;;;12.50;;
65567;SDS011;52211;50.154;8.682;2024-01-30T09:23:38;15.50;;;11.80;;
65567;SDS011;52211;50.154;8.682;2024-01-30T09:26:07;16.07;;;12.63;;
65567;SDS011;52211;50.154;8.682;2024-01-30T09:28:34;19.60;;;12.87;;
65567;SDS011;52211;50.154;8.682;2024-01-30T09:31:04;15.60;;;11.77;;
65567;SDS011;52211;50.154;8.682;2024-01-30T09:33:36;15.30;;;12.30;;
65567;SDS011;52211;50.154;8.682;2024-01-30T09:36:06;15.60;;;12.87;;
65567;SDS011;52211;50.154;8.682;2024-01-30T09:38:36;13.37;;;11.97;;
65567;SDS011;52211;50.154;8.682;2024-01-30T09:41:03;13.87;;;12.00;;
65567;SDS011;52211;50.154;8.682;2024-01-30T09:43:38;13.53;;;11.27;;
65567;SDS011;52211;50.154;8.682;2024-01-30T09:46:11;15.07;;;12.23;;
65567;SDS011;52211;50.154;8.682;2024-01-30T09:48:41;17.40;;;12.13;;
65567;SDS011;52211;50.154;8.682;2024-01-30T09:51:09;16.07;;;13.67;;
65567;SDS011;52211;50.154;8.682;2024-01-30T09:53:37;14.37;;;12.30;;
65567;SDS011;52211;50.154;8.682;2024-01-30T09:56:08;17.33;;;12.87;;
65567;SDS011;52211;50.154;8.682;2024-01-30T09:58:35;16.03;;;12.00;;
65567;SDS011;52211;50.154;8.682;2024-01-30T10:01:08;15.67;;;12.67;;
65567;SDS011;52211;50.154;8.682;2024-01-30T10:03:37;13.83;;;12.00;;
65567;SDS011;52211;50.154;8.682;2024-01-30T10:06:04;15.07;;;11.93;;
65567;SDS011;52211;50.154;8.682;2024-01-30T10:08:34;16.87;;;12.57;;
65567;SDS011;52211;50.154;8.682;2024-01-30T10:11:01;16.93;;;12.50;;
65567;SDS011;52211;50.154;8.682;2024-01-30T10:13:31;14.63;;;12.47;;
65567;SDS011;52211;50.154;8.682;2024-01-30T10:16:01;15.70;;;12.70;;
65567;SDS011;52211;50.154;8.682;2024-01-30T10:18:29;15.97;;;12.80;;
65567;SDS011;52211;50.154;8.682;2024-01-30T10:21:01;16.83;;;12.23;;
65567;SDS011;52211;50.154;8.682;2024-01-30T10:23:29;13.83;;;12.07;;
65567;SDS011;52211;50.154;8.682;2024-01-30T10:26:07;14.20;;;11.97;;
65567;SDS011;52211;50.154;8.682;2024-01-30T10:28:37;16.07;;;12.83;;
65567;SDS011;52211;50.154;8.682;2024-01-30T10:31:08;14.10;;;12.07;;
65567;SDS011;52211;50.154;8.682;2024-01-30T10:33:38;18.23;;;13.17;;
65567;SDS011;52211;50.154;8.682;2024-01-30T10:36:05;13.73;;;11.77;;
65567;SDS011;52211;50.154;8.682;2024-01-30T10:38:38;16.40;;;13.37;;
65567;SDS011;52211;50.154;8.682;2024-01-30T10:41:12;15.17;;;11.60;;
65567;SDS011;52211;50.154;8.682;2024-01-30T10:43:50;16.17;;;13.27;;
65567;SDS011;52211;50.154;8.682;2024-01-30T10:46:34;17.83;;;13.57;;
65567;SDS011;52211;50.154;8.682;2024-01-30T10:49:07;14.63;;;12.80;;
65567;SDS011;52211;50.154;8.682;2024-01-30T10:51:36;15.17;;;12.77;;
65567;SDS011;52211;50.154;8.682;2024-01-30T10:54:09;18.07;;;11.77;;
65567;SDS011;52211;50.154;8.682;2024-01-30T10:56:45;15.27;;;12.97;;
65567;SDS011;52211;50.154;8.682;2024-01-30T10:59:17;15.87;;;12.00;;
65567;SDS011;52211;50.154;8.682;2024-01-30T11:01:45;16.73;;;12.63;;
65567;SDS011;52211;50.154;8.682;2024-01-30T11:04:19;13.57;;;11.50;;
65567;SDS011;52211;50.154;8.682;2024-01-30T11:06:49;16.40;;;12.23;;
65567;SDS011;52211;50.154;8.682;2024-01-30T11:09:17;14.40;;;12.67;;
65567;SDS011;52211;50.154;8.682;2024-01-30T11:11:51;13.33;;;12.03;;
65567;SDS011;52211;50.154;8.682;2024-01-30T11:14:30;15.13;;;11.90;;
65567;SDS011;52211;50.154;8.682;2024-01-30T11:17:02;12.33;;;10.80;;
65567;SDS011;52211;50.154;8.682;2024-01-30T11:19:30;13.10;;;11.20;;
65567;SDS011;52211;50.154;8.682;2024-01-30T11:22:01;18.20;;;13.33;;
65567;SDS011;52211;50.154;8.682;2024-01-30T11:24:28;17.00;;;11.93;;
65567;SDS011;52211;50.154;8.682;2024-01-30T11:26:58;15.10;;;12.37;;
65567;SDS011;52211;50.154;8.682;2024-01-30T11:29:28;16.67;;;12.63;;
65567;SDS011;52211;50.154;8.682;2024-01-30T11:32:04;17.00;;;13.47;;
65567;SDS011;52211;50.154;8.682;2024-01-30T11:34:34;16.50;;;13.03;;
65567;SDS011;52211;50.154;8.682;2024-01-30T11:37:07;15.40;;;12.47;;
65567;SDS011;52211;50.154;8.682;2024-01-30T11:39:39;15.70;;;12.37;;
65567;SDS011;52211;50.154;8.682;2024-01-30T11:42:10;14.17;;;12.10;;
65567;SDS011;52211;50.154;8.682;2024-01-30T11:44:40;14.47;;;11.93;;
65567;SDS011;52211;50.154;8.682;2024-01-30T11:47:09;17.87;;;11.23;;
65567;SDS011;52211;50.154;8.682;2024-01-30T11:49:42;16.07;;;12.57;;
65567;SDS011;52211;50.154;8.682;2024-01-30T11:52:13;17.30;;;12.57;;
65567;SDS011;52211;50.154;8.682;2024-01-30T11:54:42;15.33;;;11.33;;
65567;SDS011;52211;50.154;8.682;2024-01-30T11:57:10;14.07;;;11.43;;
65567;SDS011;52211;50.154;8.682;2024-01-30T11:59:39;14.30;;;11.43;;
65567;SDS011;52211;50.154;8.682;2024-01-30T12:02:05;13.50;;;11.07;;
65567;SDS011;52211;50.154;8.682;2024-01-30T12:04:32;15.60;;;10.97;;
65567;SDS011;52211;50.154;8.682;2024-01-30T12:07:02;14.93;;;11.77;;
65567;SDS011;52211;50.154;8.682;2024-01-30T12:09:30;12.63;;;11.27;;
65567;SDS011;52211;50.154;8.682;2024-01-30T12:11:59;14.33;;;11.10;;
65567;SDS011;52211;50.154;8.682;2024-01-30T12:14:26;14.13;;;10.83;;
65567;SDS011;52211;50.154;8.682;2024-01-30T12:16:56;13.50;;;11.23;;
65567;SDS011;52211;50.154;8.682;2024-01-30T12:19:25;12.50;;;11.00;;
65567;SDS011;52211;50.154;8.682;2024-01-30T12:21:57;15.20;;;11.73;;
65567;SDS011;52211;50.154;8.682;2024-01-30T12:24:27;13.63;;;11.33;;
65567;SDS011;52211;50.154;8.682;2024-01-30T12:27:01;12.53;;;11.30;;
65567;SDS011;52211;50.154;8.682;2024-01-30T12:29:33;13.40;;;11.87;;
65567;SDS011;52211;50.154;8.682;2024-01-30T12:32:06;12.40;;;11.10;;
65567;SDS011;52211;50.154;8.682;2024-01-30T12:34:41;16.53;;;11.07;;
65567;SDS011;52211;50.154;8.682;2024-01-30T12:37:22;12.53;;;11.23;;
65567;SDS011;52211;50.154;8.682;2024-01-30T12:39:54;12.97;;;11.23;;
65567;SDS011;52211;50.154;8.682;2024-01-30T12:42:21;12.33;;;10.93;;
65567;SDS011;52211;50.154;8.682;2024-01-30T12:44:48;13.60;;;11.77;;
65567;SDS011;52211;50.154;8.682;2024-01-30T12:47:18;13.43;;;11.83;;
65567;SDS011;52211;50.154;8.682;2024-01-30T12:49:50;12.27;;;10.93;;
65567;SDS011;52211;50.154;8.682;2024-01-30T12:52:21;13.50;;;11.00;;
65567;SDS011;52211;50.154;8.682;2024-01-30T12:54:49;14.33;;;10.60;;
65567;SDS011;52211;50.154;8.682;2024-01-30T12:57:17;10.47;;;9.47;;
65567;SDS011;52211;50.154;8.682;2024-01-30T12:59:45;12.67;;;10.67;;
65567;SDS011;52211;50.154;8.682;2024-01-30T13:02:15;12.93;;;10.23;;
65567;SDS011;52211;50.154;8.682;2024-01-30T13:04:42;12.63;;;9.93;;
65567;SDS011;52211;50.154;8.682;2024-01-30T13:07:19;11.00;;;9.90;;
65567;SDS011;52211;50.154;8.682;2024-01-30T13:09:47;12.33;;;10.23;;
65567;SDS011;52211;50.154;8.682;2024-01-30T13:12:18;11.23;;;9.97;;
65567;SDS011;52211;50.154;8.682;2024-01-30T13:14:50;9.97;;;8.93;;
65567;SDS011;52211;50.154;8.682;2024-01-30T13:17:19;12.87;;;10.00;;
65567;SDS011;52211;50.154;8.682;2024-01-30T13:19:49;10.80;;;9.33;;
65567;SDS011;52211;50.154;8.682;2024-01-30T13:22:18;11.83;;;9.17;;
65567;SDS011;52211;50.154;8.682;2024-01-30T13:24:47;10.57;;;8.43;;
65567;SDS011;52211;50.154;8.682;2024-01-30T13:27:17;12.33;;;9.93;;
65567;SDS011;52211;50.154;8.682;2024-01-30T13:29:44;13.33;;;10.57;;
65567;SDS011;52211;50.154;8.682;2024-01-30T13:32:11;12.80;;;9.30;;
65567;SDS011;52211;50.154;8.682;2024-01-30T13:34:40;11.40;;;9.63;;
65567;SDS011;52211;50.154;8.682;2024-01-30T13:37:14;10.33;;;9.30;;
65567;SDS011;52211;50.154;8.682;2024-01-30T13:39:45;11.67;;;9.93;;
65567;SDS011;52211;50.154;8.682;2024-01-30T13:42:12;11.97;;;9.33;;
65567;SDS011;52211;50.154;8.682;2024-01-30T13:44:39;12.83;;;9.83;;
65567;SDS011;52211;50.154;8.682;2024-01-30T13:47:06;13.40;;;10.77;;
65567;SDS011;52211;50.154;8.682;2024-01-30T13:49:33;11.20;;;10.03;;
65567;SDS011;52211;50.154;8.682;2024-01-30T13:52:05;13.10;;;10.50;;
65567;SDS011;52211;50.154;8.682;2024-01-30T13:54:35;13.77;;;10.57;;
65567;SDS011;52211;50.154;8.682;2024-01-30T13:57:04;12.63;;;9.80;;
65567;SDS011;52211;50.154;8.682;2024-01-30T13:59:33;14.07;;;9.90;;
65567;SDS011;52211;50.154;8.682;2024-01-30T14:02:04;15.60;;;11.33;;
65567;SDS011;52211;50.154;8.682;2024-01-30T14:04:34;15.47;;;10.20;;
65567;SDS011;52211;50.154;8.682;2024-01-30T14:07:04;13.17;;;10.60;;
65567;SDS011;52211;50.154;8.682;2024-01-30T14:09:32;14.33;;;11.47;;
65567;SDS011;52211;50.154;8.682;2024-01-30T14:12:02;13.73;;;10.53;;
65567;SDS011;52211;50.154;8.682;2024-01-30T14:14:29;12.87;;;10.83;;
65567;SDS011;52211;50.154;8.682;2024-01-30T14:17:01;11.40;;;10.23;;
65567;SDS011;52211;50.154;8.682;2024-01-30T14:19:29;14.80;;;11.30;;
65567;SDS011;52211;50.154;8.682;2024-01-30T14:22:04;13.00;;;10.03;;
65567;SDS011;52211;50.154;8.682;2024-01-30T14:24:33;15.60;;;10.90;;
65567;SDS011;52211;50.154;8.682;2024-01-30T14:27:00;12.83;;;10.33;;
65567;SDS011;52211;50.154;8.682;2024-01-30T14:29:27;12.60;;;10.63;;
65567;SDS011;52211;50.154;8.682;2024-01-30T14:31:54;13.13;;;10.57;;
65567;SDS011;52211;50.154;8.682;2024-01-30T14:34:23;14.27;;;10.90;;
65567;SDS011;52211;50.154;8.682;2024-01-30T14:36:56;13.57;;;11.07;;
65567;SDS011;52211;50.154;8.682;2024-01-30T14:39:27;13.37;;;10.40;;